This is the latest recevied weather packets stored in our database for station/object N3PB. If no packets are shown the sender has not sent any weather packets the latest 10 day(s).
| Time | Temp. | Humidity | Pressure | Rain* | Wind** | Luminosity | Snow |
|---|---|---|---|---|---|---|---|
| 1778176295 | 11.67° C | 85% | 1010.5 hPa | 0 mm | - | - | - |
| 1778175098 | 11.67° C | 85% | 1010.5 hPa | 0 mm | - | - | - |
| 1778174795 | 11.67° C | 84% | 1010.3 hPa | 0 mm | - | - | - |
| 1778172098 | 11.67° C | 86% | 1010.7 hPa | 0 mm | - | - | - |
| 1778156471 | 11.67° C | 91% | 1011.5 hPa | 0 mm | - | - | - |
| 1778156171 | 11.67° C | 91% | 1011.4 hPa | 0 mm | - | - | - |
| 1778155580 | 11.67° C | 91% | 1011.4 hPa | 0 mm | - | - | - |
| 1778155277 | 11.67° C | 91% | 1011.2 hPa | 0 mm | - | - | - |
| 1778154971 | 11.67° C | 91% | 1011.2 hPa | 0 mm | - | - | - |
| 1778152874 | 12.22° C | 93% | 1011.5 hPa | 0 mm | - | - | - |
| 1778152571 | 12.22° C | 93% | 1011.1 hPa | 0 mm | - | - | - |
| 1778152271 | 12.22° C | 93% | 1011.1 hPa | 0 mm | - | - | - |
| 1778151971 | 12.22° C | 94% | 1010.7 hPa | 0 mm | - | - | - |
| 1778150174 | 12.22° C | 93% | 1010.6 hPa | 0 mm | - | - | - |
| 1778149871 | 12.22° C | 93% | 1010.8 hPa | 0 mm | - | - | - |
| 1778149571 | 12.22° C | 93% | 1010.4 hPa | 0 mm | - | - | - |
| 1778149280 | 12.22° C | 93% | 1010.5 hPa | 0 mm | - | - | - |
| 1778147774 | 12.22° C | 93% | 1010.5 hPa | 0 mm | - | - | - |
| 1778144777 | 12.78° C | 92% | 1010.9 hPa | 0 mm | - | - | - |
| 1778144471 | 12.78° C | 92% | 1010.8 hPa | 0 mm | - | - | - |
| 1778144174 | 12.78° C | 92% | 1010.4 hPa | 0 mm | - | - | - |
| 1777652530 | 16.11° C | 51% | 1013 hPa | 0 mm | - | - | - |
| 1777651621 | 15.56° C | 49% | 1013 hPa | 0 mm | - | - | - |
| 1777649224 | 14.44° C | 56% | 1013.3 hPa | 0 mm | - | - | - |
| 1777648621 | 13.89° C | 54% | 1013.5 hPa | 0 mm | - | - | - |
* Rain latest hour (hover to see other rain measurements)
** Current wind speed in m/s (hover to see current wind gust speed)